sensor_id;sensor_type;location;lat;lon;timestamp;P1;durP1;ratioP1;P2;durP2;ratioP2
40591;SDS011;26301;42.832;23.918;2024-03-02T00:00:08;12.68;;;8.85;;
40591;SDS011;26301;42.832;23.918;2024-03-02T00:05:12;13.52;;;9.05;;
40591;SDS011;26301;42.832;23.918;2024-03-02T00:07:41;15.82;;;8.77;;
40591;SDS011;26301;42.832;23.918;2024-03-02T00:10:09;13.48;;;9.13;;
40591;SDS011;26301;42.832;23.918;2024-03-02T00:12:39;13.07;;;8.50;;
40591;SDS011;26301;42.832;23.918;2024-03-02T00:15:32;14.38;;;8.70;;
40591;SDS011;26301;42.832;23.918;2024-03-02T00:17:54;17.05;;;9.45;;
40591;SDS011;26301;42.832;23.918;2024-03-02T00:20:21;18.98;;;8.88;;
40591;SDS011;26301;42.832;23.918;2024-03-02T00:22:47;17.08;;;11.35;;
40591;SDS011;26301;42.832;23.918;2024-03-02T00:25:13;17.73;;;10.15;;
40591;SDS011;26301;42.832;23.918;2024-03-02T00:27:39;14.02;;;9.40;;
40591;SDS011;26301;42.832;23.918;2024-03-02T00:33:09;19.65;;;11.60;;
40591;SDS011;26301;42.832;23.918;2024-03-02T00:35:35;14.57;;;9.85;;
40591;SDS011;26301;42.832;23.918;2024-03-02T00:38:07;13.82;;;8.68;;
40591;SDS011;26301;42.832;23.918;2024-03-02T00:40:32;14.43;;;9.02;;
40591;SDS011;26301;42.832;23.918;2024-03-02T00:42:58;11.85;;;7.75;;
40591;SDS011;26301;42.832;23.918;2024-03-02T00:45:24;16.27;;;8.38;;
40591;SDS011;26301;42.832;23.918;2024-03-02T00:47:51;14.45;;;8.48;;
40591;SDS011;26301;42.832;23.918;2024-03-02T00:50:18;12.93;;;8.18;;
40591;SDS011;26301;42.832;23.918;2024-03-02T00:52:43;13.88;;;8.70;;
40591;SDS011;26301;42.832;23.918;2024-03-02T00:55:09;11.65;;;7.53;;
40591;SDS011;26301;42.832;23.918;2024-03-02T00:57:35;15.70;;;8.07;;
40591;SDS011;26301;42.832;23.918;2024-03-02T01:00:01;11.93;;;7.25;;
40591;SDS011;26301;42.832;23.918;2024-03-02T01:02:27;14.45;;;8.05;;
40591;SDS011;26301;42.832;23.918;2024-03-02T01:04:54;14.57;;;7.78;;
40591;SDS011;26301;42.832;23.918;2024-03-02T01:07:19;19.15;;;11.98;;
40591;SDS011;26301;42.832;23.918;2024-03-02T01:09:45;13.10;;;7.32;;
40591;SDS011;26301;42.832;23.918;2024-03-02T01:12:10;12.13;;;6.70;;
40591;SDS011;26301;42.832;23.918;2024-03-02T01:14:36;9.48;;;6.03;;
40591;SDS011;26301;42.832;23.918;2024-03-02T01:17:01;11.75;;;7.28;;
40591;SDS011;26301;42.832;23.918;2024-03-02T01:19:29;15.27;;;7.60;;
40591;SDS011;26301;42.832;23.918;2024-03-02T01:21:55;13.77;;;7.22;;
40591;SDS011;26301;42.832;23.918;2024-03-02T01:24:20;15.43;;;6.97;;
40591;SDS011;26301;42.832;23.918;2024-03-02T01:26:46;12.85;;;7.97;;
40591;SDS011;26301;42.832;23.918;2024-03-02T01:29:11;13.10;;;6.80;;
40591;SDS011;26301;42.832;23.918;2024-03-02T01:31:37;19.48;;;13.55;;
40591;SDS011;26301;42.832;23.918;2024-03-02T01:34:02;36.70;;;22.45;;
40591;SDS011;26301;42.832;23.918;2024-03-02T01:36:28;54.95;;;30.55;;
40591;SDS011;26301;42.832;23.918;2024-03-02T01:38:53;49.60;;;31.10;;
40591;SDS011;26301;42.832;23.918;2024-03-02T01:41:23;148.48;;;35.17;;
40591;SDS011;26301;42.832;23.918;2024-03-02T01:43:49;55.30;;;33.22;;
40591;SDS011;26301;42.832;23.918;2024-03-02T01:46:15;107.88;;;36.35;;
40591;SDS011;26301;42.832;23.918;2024-03-02T01:48:40;131.45;;;35.58;;
40591;SDS011;26301;42.832;23.918;2024-03-02T01:51:06;121.05;;;37.35;;
40591;SDS011;26301;42.832;23.918;2024-03-02T01:53:32;178.50;;;35.92;;
40591;SDS011;26301;42.832;23.918;2024-03-02T01:55:57;70.40;;;34.40;;
40591;SDS011;26301;42.832;23.918;2024-03-02T01:58:23;309.35;;;35.42;;
40591;SDS011;26301;42.832;23.918;2024-03-02T02:00:48;309.75;;;35.63;;
40591;SDS011;26301;42.832;23.918;2024-03-02T02:03:15;209.65;;;30.65;;
40591;SDS011;26301;42.832;23.918;2024-03-02T02:05:41;86.13;;;31.08;;
40591;SDS011;26301;42.832;23.918;2024-03-02T02:08:07;376.45;;;34.67;;
40591;SDS011;26301;42.832;23.918;2024-03-02T02:10:33;224.82;;;33.20;;
40591;SDS011;26301;42.832;23.918;2024-03-02T02:12:58;182.02;;;31.85;;
40591;SDS011;26301;42.832;23.918;2024-03-02T02:15:28;310.95;;;34.17;;
40591;SDS011;26301;42.832;23.918;2024-03-02T02:17:55;247.93;;;32.05;;
40591;SDS011;26301;42.832;23.918;2024-03-02T02:20:22;268.20;;;30.08;;
40591;SDS011;26301;42.832;23.918;2024-03-02T02:22:58;328.60;;;27.42;;
40591;SDS011;26301;42.832;23.918;2024-03-02T02:25:25;224.70;;;25.13;;
40591;SDS011;26301;42.832;23.918;2024-03-02T02:27:51;136.90;;;23.10;;
40591;SDS011;26301;42.832;23.918;2024-03-02T02:30:24;207.82;;;22.05;;
40591;SDS011;26301;42.832;23.918;2024-03-02T02:32:51;211.07;;;23.45;;
40591;SDS011;26301;42.832;23.918;2024-03-02T02:35:17;247.52;;;24.33;;
40591;SDS011;26301;42.832;23.918;2024-03-02T02:37:43;220.63;;;21.88;;
40591;SDS011;26301;42.832;23.918;2024-03-02T02:40:10;219.05;;;19.33;;
40591;SDS011;26301;42.832;23.918;2024-03-02T02:42:37;340.05;;;24.88;;
40591;SDS011;26301;42.832;23.918;2024-03-02T02:45:03;302.58;;;22.83;;
40591;SDS011;26301;42.832;23.918;2024-03-02T02:47:29;493.42;;;28.13;;
40591;SDS011;26301;42.832;23.918;2024-03-02T02:49:55;242.50;;;21.00;;
40591;SDS011;26301;42.832;23.918;2024-03-02T02:52:21;328.85;;;25.90;;
40591;SDS011;26301;42.832;23.918;2024-03-02T02:54:46;460.58;;;25.60;;
40591;SDS011;26301;42.832;23.918;2024-03-02T02:57:12;364.17;;;23.35;;
40591;SDS011;26301;42.832;23.918;2024-03-02T02:59:37;394.13;;;24.98;;
40591;SDS011;26301;42.832;23.918;2024-03-02T03:02:03;343.38;;;20.98;;
40591;SDS011;26301;42.832;23.918;2024-03-02T03:04:29;362.45;;;23.95;;
40591;SDS011;26301;42.832;23.918;2024-03-02T03:06:54;302.23;;;24.20;;
40591;SDS011;26301;42.832;23.918;2024-03-02T03:09:19;367.55;;;24.35;;
40591;SDS011;26301;42.832;23.918;2024-03-02T03:11:45;444.05;;;27.20;;
40591;SDS011;26301;42.832;23.918;2024-03-02T03:14:11;319.17;;;25.05;;
40591;SDS011;26301;42.832;23.918;2024-03-02T03:16:36;270.15;;;23.70;;
40591;SDS011;26301;42.832;23.918;2024-03-02T03:19:02;243.65;;;25.50;;
40591;SDS011;26301;42.832;23.918;2024-03-02T03:21:28;216.77;;;23.00;;
40591;SDS011;26301;42.832;23.918;2024-03-02T03:23:53;197.70;;;23.02;;
40591;SDS011;26301;42.832;23.918;2024-03-02T03:26:20;214.93;;;26.65;;
40591;SDS011;26301;42.832;23.918;2024-03-02T03:28:45;78.97;;;25.98;;
40591;SDS011;26301;42.832;23.918;2024-03-02T03:31:11;48.08;;;25.05;;
40591;SDS011;26301;42.832;23.918;2024-03-02T03:33:37;45.25;;;25.02;;
40591;SDS011;26301;42.832;23.918;2024-03-02T03:36:02;41.83;;;24.63;;
40591;SDS011;26301;42.832;23.918;2024-03-02T03:38:28;87.07;;;25.45;;
40591;SDS011;26301;42.832;23.918;2024-03-02T03:40:54;96.03;;;24.58;;
40591;SDS011;26301;42.832;23.918;2024-03-02T03:43:20;95.10;;;21.42;;
40591;SDS011;26301;42.832;23.918;2024-03-02T03:45:45;104.97;;;23.92;;
40591;SDS011;26301;42.832;23.918;2024-03-02T03:48:11;188.10;;;24.77;;
40591;SDS011;26301;42.832;23.918;2024-03-02T03:50:36;214.57;;;23.05;;
40591;SDS011;26301;42.832;23.918;2024-03-02T03:53:03;129.15;;;21.83;;
40591;SDS011;26301;42.832;23.918;2024-03-02T03:55:28;206.20;;;22.90;;
40591;SDS011;26301;42.832;23.918;2024-03-02T03:57:54;395.83;;;25.00;;
40591;SDS011;26301;42.832;23.918;2024-03-02T04:00:19;427.58;;;26.70;;
40591;SDS011;26301;42.832;23.918;2024-03-02T04:02:45;348.63;;;21.92;;
40591;SDS011;26301;42.832;23.918;2024-03-02T04:05:10;534.92;;;26.05;;
40591;SDS011;26301;42.832;23.918;2024-03-02T04:07:36;379.63;;;19.60;;
40591;SDS011;26301;42.832;23.918;2024-03-02T04:10:06;405.52;;;21.98;;
40591;SDS011;26301;42.832;23.918;2024-03-02T04:12:33;301.83;;;18.48;;
40591;SDS011;26301;42.832;23.918;2024-03-02T04:15:00;377.63;;;21.30;;
40591;SDS011;26301;42.832;23.918;2024-03-02T04:17:26;313.85;;;21.20;;
40591;SDS011;26301;42.832;23.918;2024-03-02T04:19:52;237.02;;;16.58;;
40591;SDS011;26301;42.832;23.918;2024-03-02T04:22:17;86.20;;;16.65;;
40591;SDS011;26301;42.832;23.918;2024-03-02T04:24:43;201.95;;;19.02;;
40591;SDS011;26301;42.832;23.918;2024-03-02T04:27:08;247.90;;;20.20;;
40591;SDS011;26301;42.832;23.918;2024-03-02T04:29:34;137.15;;;18.67;;
40591;SDS011;26301;42.832;23.918;2024-03-02T04:31:59;136.02;;;17.63;;
40591;SDS011;26301;42.832;23.918;2024-03-02T04:34:25;142.82;;;15.95;;
40591;SDS011;26301;42.832;23.918;2024-03-02T04:36:50;143.15;;;16.27;;
40591;SDS011;26301;42.832;23.918;2024-03-02T04:39:16;171.98;;;17.80;;
40591;SDS011;26301;42.832;23.918;2024-03-02T04:41:41;176.90;;;15.35;;
40591;SDS011;26301;42.832;23.918;2024-03-02T04:44:07;27.38;;;13.25;;
40591;SDS011;26301;42.832;23.918;2024-03-02T04:46:33;56.97;;;14.27;;
40591;SDS011;26301;42.832;23.918;2024-03-02T04:48:58;137.00;;;15.35;;
40591;SDS011;26301;42.832;23.918;2024-03-02T04:51:24;106.90;;;15.50;;
40591;SDS011;26301;42.832;23.918;2024-03-02T04:53:50;134.70;;;15.90;;
40591;SDS011;26301;42.832;23.918;2024-03-02T04:56:16;178.98;;;15.32;;
40591;SDS011;26301;42.832;23.918;2024-03-02T04:58:47;220.52;;;14.30;;
40591;SDS011;26301;42.832;23.918;2024-03-02T05:01:13;278.23;;;12.38;;
40591;SDS011;26301;42.832;23.918;2024-03-02T05:03:38;334.85;;;16.63;;
40591;SDS011;26301;42.832;23.918;2024-03-02T05:06:04;245.85;;;13.40;;
40591;SDS011;26301;42.832;23.918;2024-03-02T05:08:29;265.50;;;14.30;;
40591;SDS011;26301;42.832;23.918;2024-03-02T05:10:55;204.98;;;12.77;;
40591;SDS011;26301;42.832;23.918;2024-03-02T05:13:40;249.55;;;12.65;;
40591;SDS011;26301;42.832;23.918;2024-03-02T05:16:05;243.48;;;12.38;;
40591;SDS011;26301;42.832;23.918;2024-03-02T05:18:31;103.03;;;13.57;;
40591;SDS011;26301;42.832;23.918;2024-03-02T05:20:56;161.25;;;12.85;;
40591;SDS011;26301;42.832;23.918;2024-03-02T05:23:22;125.95;;;11.32;;
40591;SDS011;26301;42.832;23.918;2024-03-02T05:25:47;91.57;;;11.10;;
40591;SDS011;26301;42.832;23.918;2024-03-02T05:28:13;99.25;;;10.38;;
40591;SDS011;26301;42.832;23.918;2024-03-02T05:30:38;93.80;;;9.85;;
40591;SDS011;26301;42.832;23.918;2024-03-02T05:33:04;61.22;;;8.52;;
40591;SDS011;26301;42.832;23.918;2024-03-02T05:35:29;81.97;;;9.15;;
40591;SDS011;26301;42.832;23.918;2024-03-02T05:37:55;39.85;;;8.23;;
40591;SDS011;26301;42.832;23.918;2024-03-02T05:40:20;63.33;;;9.27;;
40591;SDS011;26301;42.832;23.918;2024-03-02T05:42:46;68.97;;;9.02;;
40591;SDS011;26301;42.832;23.918;2024-03-02T05:45:12;102.35;;;9.18;;
40591;SDS011;26301;42.832;23.918;2024-03-02T05:47:37;28.15;;;7.03;;
40591;SDS011;26301;42.832;23.918;2024-03-02T05:50:03;169.68;;;8.38;;
40591;SDS011;26301;42.832;23.918;2024-03-02T05:52:29;143.93;;;8.45;;
40591;SDS011;26301;42.832;23.918;2024-03-02T05:54:55;231.85;;;9.90;;
40591;SDS011;26301;42.832;23.918;2024-03-02T05:57:20;195.35;;;7.88;;
40591;SDS011;26301;42.832;23.918;2024-03-02T06:00:06;193.90;;;10.45;;
40591;SDS011;26301;42.832;23.918;2024-03-02T06:02:33;339.88;;;10.40;;
40591;SDS011;26301;42.832;23.918;2024-03-02T06:05:00;191.85;;;8.18;;
40591;SDS011;26301;42.832;23.918;2024-03-02T06:07:25;159.10;;;9.95;;
40591;SDS011;26301;42.832;23.918;2024-03-02T06:09:51;296.25;;;11.02;;
40591;SDS011;26301;42.832;23.918;2024-03-02T06:12:17;203.95;;;10.07;;
40591;SDS011;26301;42.832;23.918;2024-03-02T06:14:44;230.48;;;10.38;;
40591;SDS011;26301;42.832;23.918;2024-03-02T06:17:09;79.88;;;7.22;;
40591;SDS011;26301;42.832;23.918;2024-03-02T06:19:37;98.95;;;9.48;;
40591;SDS011;26301;42.832;23.918;2024-03-02T06:22:03;180.57;;;10.18;;
40591;SDS011;26301;42.832;23.918;2024-03-02T06:24:29;112.13;;;9.25;;
40591;SDS011;26301;42.832;23.918;2024-03-02T06:26:54;129.00;;;8.57;;
40591;SDS011;26301;42.832;23.918;2024-03-02T06:29:20;37.72;;;7.28;;
40591;SDS011;26301;42.832;23.918;2024-03-02T06:31:46;165.15;;;8.10;;
40591;SDS011;26301;42.832;23.918;2024-03-02T06:34:12;52.75;;;7.00;;
40591;SDS011;26301;42.832;23.918;2024-03-02T06:36:38;88.20;;;7.40;;
40591;SDS011;26301;42.832;23.918;2024-03-02T06:39:05;54.40;;;8.88;;
40591;SDS011;26301;42.832;23.918;2024-03-02T06:41:31;60.55;;;7.07;;
40591;SDS011;26301;42.832;23.918;2024-03-02T06:43:56;9.40;;;5.78;;
40591;SDS011;26301;42.832;23.918;2024-03-02T06:46:25;17.40;;;6.25;;
40591;SDS011;26301;42.832;23.918;2024-03-02T06:48:50;15.45;;;5.95;;
40591;SDS011;26301;42.832;23.918;2024-03-02T06:51:16;14.27;;;6.25;;
40591;SDS011;26301;42.832;23.918;2024-03-02T06:53:41;12.65;;;7.20;;
40591;SDS011;26301;42.832;23.918;2024-03-02T06:56:07;13.32;;;7.40;;
40591;SDS011;26301;42.832;23.918;2024-03-02T06:58:33;11.82;;;6.20;;
40591;SDS011;26301;42.832;23.918;2024-03-02T07:00:58;14.73;;;8.75;;
40591;SDS011;26301;42.832;23.918;2024-03-02T07:03:25;10.85;;;6.85;;
40591;SDS011;26301;42.832;23.918;2024-03-02T07:05:51;11.65;;;6.90;;
40591;SDS011;26301;42.832;23.918;2024-03-02T07:08:16;10.50;;;6.95;;
40591;SDS011;26301;42.832;23.918;2024-03-02T07:10:42;9.13;;;6.43;;
40591;SDS011;26301;42.832;23.918;2024-03-02T07:13:07;6.93;;;4.60;;
40591;SDS011;26301;42.832;23.918;2024-03-02T07:15:33;8.25;;;6.07;;
40591;SDS011;26301;42.832;23.918;2024-03-02T07:18:01;9.40;;;6.57;;
40591;SDS011;26301;42.832;23.918;2024-03-02T07:20:27;7.90;;;5.68;;
40591;SDS011;26301;42.832;23.918;2024-03-02T07:22:53;11.23;;;5.32;;
40591;SDS011;26301;42.832;23.918;2024-03-02T07:25:18;8.35;;;5.43;;
40591;SDS011;26301;42.832;23.918;2024-03-02T07:27:44;13.65;;;5.57;;
40591;SDS011;26301;42.832;23.918;2024-03-02T07:30:09;7.85;;;5.22;;
40591;SDS011;26301;42.832;23.918;2024-03-02T07:32:38;14.70;;;5.55;;
40591;SDS011;26301;42.832;23.918;2024-03-02T07:35:04;9.43;;;5.72;;
40591;SDS011;26301;42.832;23.918;2024-03-02T07:37:30;22.40;;;5.75;;
40591;SDS011;26301;42.832;23.918;2024-03-02T07:39:55;51.78;;;6.15;;
40591;SDS011;26301;42.832;23.918;2024-03-02T07:42:21;7.50;;;4.97;;
40591;SDS011;26301;42.832;23.918;2024-03-02T07:44:46;13.10;;;5.65;;
40591;SDS011;26301;42.832;23.918;2024-03-02T07:47:12;19.38;;;6.30;;
40591;SDS011;26301;42.832;23.918;2024-03-02T07:49:38;14.88;;;5.68;;
40591;SDS011;26301;42.832;23.918;2024-03-02T07:52:03;7.93;;;5.32;;
40591;SDS011;26301;42.832;23.918;2024-03-02T07:54:29;13.82;;;5.45;;
40591;SDS011;26301;42.832;23.918;2024-03-02T07:56:54;7.55;;;5.28;;
40591;SDS011;26301;42.832;23.918;2024-03-02T07:59:20;8.95;;;5.68;;
40591;SDS011;26301;42.832;23.918;2024-03-02T08:01:47;11.07;;;6.45;;
40591;SDS011;26301;42.832;23.918;2024-03-02T08:04:14;7.53;;;5.03;;
40591;SDS011;26301;42.832;23.918;2024-03-02T08:06:39;9.13;;;5.80;;
40591;SDS011;26301;42.832;23.918;2024-03-02T08:09:05;8.98;;;6.07;;
40591;SDS011;26301;42.832;23.918;2024-03-02T08:11:34;8.10;;;5.75;;
40591;SDS011;26301;42.832;23.918;2024-03-02T08:14:00;13.23;;;6.78;;
40591;SDS011;26301;42.832;23.918;2024-03-02T08:16:25;10.93;;;7.03;;
40591;SDS011;26301;42.832;23.918;2024-03-02T08:18:51;10.25;;;6.53;;
40591;SDS011;26301;42.832;23.918;2024-03-02T08:21:17;18.80;;;6.47;;
40591;SDS011;26301;42.832;23.918;2024-03-02T08:23:43;11.23;;;6.78;;
40591;SDS011;26301;42.832;23.918;2024-03-02T08:26:09;20.27;;;7.40;;
40591;SDS011;26301;42.832;23.918;2024-03-02T08:28:35;30.60;;;7.88;;
40591;SDS011;26301;42.832;23.918;2024-03-02T08:31:05;17.35;;;7.78;;
40591;SDS011;26301;42.832;23.918;2024-03-02T08:33:32;13.15;;;8.60;;
40591;SDS011;26301;42.832;23.918;2024-03-02T08:35:57;14.00;;;7.38;;
40591;SDS011;26301;42.832;23.918;2024-03-02T08:38:23;12.75;;;7.47;;
40591;SDS011;26301;42.832;23.918;2024-03-02T08:40:50;11.88;;;7.35;;
40591;SDS011;26301;42.832;23.918;2024-03-02T08:43:15;11.40;;;7.85;;
40591;SDS011;26301;42.832;23.918;2024-03-02T08:45:41;9.68;;;6.85;;
40591;SDS011;26301;42.832;23.918;2024-03-02T08:48:07;12.38;;;6.30;;
40591;SDS011;26301;42.832;23.918;2024-03-02T08:50:36;9.48;;;6.63;;
40591;SDS011;26301;42.832;23.918;2024-03-02T08:53:02;9.85;;;7.00;;
40591;SDS011;26301;42.832;23.918;2024-03-02T08:55:29;9.82;;;6.70;;
40591;SDS011;26301;42.832;23.918;2024-03-02T08:57:54;10.18;;;6.38;;
40591;SDS011;26301;42.832;23.918;2024-03-02T09:00:20;8.05;;;6.25;;
40591;SDS011;26301;42.832;23.918;2024-03-02T09:02:46;9.40;;;6.55;;
40591;SDS011;26301;42.832;23.918;2024-03-02T09:05:12;13.07;;;8.07;;
40591;SDS011;26301;42.832;23.918;2024-03-02T09:07:38;16.90;;;11.20;;
40591;SDS011;26301;42.832;23.918;2024-03-02T09:10:04;12.82;;;8.32;;
40591;SDS011;26301;42.832;23.918;2024-03-02T09:12:33;20.23;;;13.35;;
40591;SDS011;26301;42.832;23.918;2024-03-02T09:14:59;19.30;;;12.82;;
40591;SDS011;26301;42.832;23.918;2024-03-02T09:17:25;20.58;;;11.27;;
40591;SDS011;26301;42.832;23.918;2024-03-02T09:19:51;19.83;;;9.52;;
40591;SDS011;26301;42.832;23.918;2024-03-02T09:22:18;21.55;;;10.57;;
40591;SDS011;26301;42.832;23.918;2024-03-02T09:24:43;31.88;;;9.32;;
40591;SDS011;26301;42.832;23.918;2024-03-02T09:27:09;34.83;;;8.63;;
40591;SDS011;26301;42.832;23.918;2024-03-02T09:29:35;13.90;;;8.30;;
40591;SDS011;26301;42.832;23.918;2024-03-02T09:32:01;28.13;;;8.20;;
40591;SDS011;26301;42.832;23.918;2024-03-02T09:34:27;35.08;;;8.50;;
40591;SDS011;26301;42.832;23.918;2024-03-02T09:36:52;113.07;;;10.48;;
40591;SDS011;26301;42.832;23.918;2024-03-02T09:42:12;16.15;;;7.75;;
40591;SDS011;26301;42.832;23.918;2024-03-02T09:44:38;33.65;;;12.10;;
40591;SDS011;26301;42.832;23.918;2024-03-02T09:47:04;51.38;;;9.95;;
40591;SDS011;26301;42.832;23.918;2024-03-02T09:49:30;23.40;;;11.40;;
40591;SDS011;26301;42.832;23.918;2024-03-02T09:51:56;16.75;;;9.10;;
40591;SDS011;26301;42.832;23.918;2024-03-02T09:54:22;49.78;;;9.32;;
40591;SDS011;26301;42.832;23.918;2024-03-02T09:56:47;20.65;;;8.05;;
40591;SDS011;26301;42.832;23.918;2024-03-02T09:59:13;16.38;;;8.50;;
40591;SDS011;26301;42.832;23.918;2024-03-02T10:01:55;12.75;;;7.07;;
40591;SDS011;26301;42.832;23.918;2024-03-02T10:04:25;12.82;;;7.80;;
40591;SDS011;26301;42.832;23.918;2024-03-02T10:06:51;19.60;;;7.68;;
40591;SDS011;26301;42.832;23.918;2024-03-02T10:09:34;14.35;;;7.10;;
40591;SDS011;26301;42.832;23.918;2024-03-02T10:12:06;9.93;;;7.05;;
40591;SDS011;26301;42.832;23.918;2024-03-02T10:14:33;11.57;;;7.28;;
40591;SDS011;26301;42.832;23.918;2024-03-02T10:17:03;16.08;;;6.88;;
40591;SDS011;26301;42.832;23.918;2024-03-02T10:19:38;13.32;;;8.52;;
40591;SDS011;26301;42.832;23.918;2024-03-02T10:22:05;9.52;;;7.13;;
40591;SDS011;26301;42.832;23.918;2024-03-02T10:24:36;9.95;;;7.05;;
40591;SDS011;26301;42.832;23.918;2024-03-02T10:27:19;9.20;;;6.03;;
40591;SDS011;26301;42.832;23.918;2024-03-02T10:29:48;8.35;;;6.32;;
40591;SDS011;26301;42.832;23.918;2024-03-02T10:32:14;9.13;;;6.40;;
40591;SDS011;26301;42.832;23.918;2024-03-02T10:34:41;9.95;;;5.93;;
40591;SDS011;26301;42.832;23.918;2024-03-02T10:37:08;8.63;;;6.32;;
40591;SDS011;26301;42.832;23.918;2024-03-02T10:39:35;10.95;;;7.13;;
40591;SDS011;26301;42.832;23.918;2024-03-02T10:42:02;11.15;;;7.22;;
40591;SDS011;26301;42.832;23.918;2024-03-02T10:44:28;11.25;;;7.65;;
40591;SDS011;26301;42.832;23.918;2024-03-02T10:46:55;9.38;;;7.28;;
40591;SDS011;26301;42.832;23.918;2024-03-02T10:49:22;10.55;;;7.57;;
40591;SDS011;26301;42.832;23.918;2024-03-02T10:51:49;10.88;;;7.82;;
40591;SDS011;26301;42.832;23.918;2024-03-02T10:54:14;8.85;;;6.72;;
40591;SDS011;26301;42.832;23.918;2024-03-02T10:56:41;10.00;;;8.10;;
40591;SDS011;26301;42.832;23.918;2024-03-02T11:01:58;11.68;;;7.40;;
40591;SDS011;26301;42.832;23.918;2024-03-02T11:04:26;8.80;;;6.55;;
40591;SDS011;26301;42.832;23.918;2024-03-02T11:06:54;9.88;;;7.78;;
40591;SDS011;26301;42.832;23.918;2024-03-02T11:09:28;9.50;;;7.20;;
40591;SDS011;26301;42.832;23.918;2024-03-02T11:14:41;37.03;;;24.70;;
40591;SDS011;26301;42.832;23.918;2024-03-02T11:17:08;13.20;;;10.27;;
40591;SDS011;26301;42.832;23.918;2024-03-02T11:19:34;10.30;;;8.02;;
40591;SDS011;26301;42.832;23.918;2024-03-02T11:22:02;10.32;;;7.45;;
40591;SDS011;26301;42.832;23.918;2024-03-02T11:24:29;9.00;;;7.45;;
40591;SDS011;26301;42.832;23.918;2024-03-02T11:26:58;8.13;;;6.43;;
40591;SDS011;26301;42.832;23.918;2024-03-02T11:32:15;8.20;;;6.68;;
40591;SDS011;26301;42.832;23.918;2024-03-02T11:34:42;10.55;;;8.15;;
40591;SDS011;26301;42.832;23.918;2024-03-02T11:37:11;7.72;;;5.45;;
40591;SDS011;26301;42.832;23.918;2024-03-02T11:39:40;6.45;;;5.05;;
40591;SDS011;26301;42.832;23.918;2024-03-02T11:42:07;8.07;;;5.30;;
40591;SDS011;26301;42.832;23.918;2024-03-02T11:44:36;6.72;;;5.30;;
40591;SDS011;26301;42.832;23.918;2024-03-02T11:47:05;8.10;;;6.32;;
40591;SDS011;26301;42.832;23.918;2024-03-02T11:49:42;20.58;;;14.07;;
40591;SDS011;26301;42.832;23.918;2024-03-02T11:52:11;8.57;;;6.28;;
40591;SDS011;26301;42.832;23.918;2024-03-02T11:54:38;10.02;;;7.70;;
40591;SDS011;26301;42.832;23.918;2024-03-02T11:57:20;8.23;;;6.32;;
40591;SDS011;26301;42.832;23.918;2024-03-02T12:02:18;6.60;;;5.20;;
40591;SDS011;26301;42.832;23.918;2024-03-02T12:04:45;7.43;;;5.32;;
40591;SDS011;26301;42.832;23.918;2024-03-02T12:07:18;6.07;;;4.80;;
40591;SDS011;26301;42.832;23.918;2024-03-02T12:09:45;7.72;;;5.28;;
40591;SDS011;26301;42.832;23.918;2024-03-02T12:12:10;7.03;;;4.65;;
40591;SDS011;26301;42.832;23.918;2024-03-02T12:14:37;5.97;;;4.50;;
40591;SDS011;26301;42.832;23.918;2024-03-02T12:17:04;7.82;;;5.90;;
40591;SDS011;26301;42.832;23.918;2024-03-02T12:19:30;6.72;;;5.00;;
40591;SDS011;26301;42.832;23.918;2024-03-02T12:21:57;7.18;;;4.55;;
40591;SDS011;26301;42.832;23.918;2024-03-02T12:24:23;6.32;;;4.95;;
40591;SDS011;26301;42.832;23.918;2024-03-02T12:26:49;6.03;;;4.88;;
40591;SDS011;26301;42.832;23.918;2024-03-02T12:29:16;6.57;;;5.13;;
40591;SDS011;26301;42.832;23.918;2024-03-02T12:31:43;6.13;;;4.93;;
40591;SDS011;26301;42.832;23.918;2024-03-02T12:34:12;8.00;;;5.93;;
40591;SDS011;26301;42.832;23.918;2024-03-02T12:36:39;6.38;;;5.20;;
40591;SDS011;26301;42.832;23.918;2024-03-02T12:39:06;10.02;;;7.45;;
40591;SDS011;26301;42.832;23.918;2024-03-02T12:41:35;8.18;;;6.05;;
40591;SDS011;26301;42.832;23.918;2024-03-02T12:44:02;5.90;;;4.68;;
40591;SDS011;26301;42.832;23.918;2024-03-02T12:46:28;5.40;;;4.20;;
40591;SDS011;26301;42.832;23.918;2024-03-02T12:48:53;5.25;;;3.80;;
40591;SDS011;26301;42.832;23.918;2024-03-02T12:51:19;6.22;;;4.35;;
40591;SDS011;26301;42.832;23.918;2024-03-02T12:53:44;4.63;;;3.40;;
40591;SDS011;26301;42.832;23.918;2024-03-02T12:56:10;4.78;;;3.67;;
40591;SDS011;26301;42.832;23.918;2024-03-02T12:58:42;6.03;;;4.35;;
40591;SDS011;26301;42.832;23.918;2024-03-02T13:01:08;4.43;;;3.10;;
40591;SDS011;26301;42.832;23.918;2024-03-02T13:03:39;3.25;;;2.40;;
40591;SDS011;26301;42.832;23.918;2024-03-02T13:06:05;3.17;;;2.25;;
40591;SDS011;26301;42.832;23.918;2024-03-02T13:08:32;4.22;;;3.25;;
40591;SDS011;26301;42.832;23.918;2024-03-02T13:10:58;3.38;;;2.65;;
40591;SDS011;26301;42.832;23.918;2024-03-02T13:13:24;3.70;;;2.53;;
40591;SDS011;26301;42.832;23.918;2024-03-02T13:15:50;3.50;;;2.55;;
40591;SDS011;26301;42.832;23.918;2024-03-02T13:18:17;2.22;;;1.85;;
40591;SDS011;26301;42.832;23.918;2024-03-02T13:20:43;3.78;;;2.17;;
40591;SDS011;26301;42.832;23.918;2024-03-02T13:23:08;2.65;;;1.98;;
40591;SDS011;26301;42.832;23.918;2024-03-02T13:25:35;2.53;;;1.77;;
40591;SDS011;26301;42.832;23.918;2024-03-02T13:28:00;3.42;;;2.25;;
40591;SDS011;26301;42.832;23.918;2024-03-02T13:30:27;3.22;;;2.35;;
40591;SDS011;26301;42.832;23.918;2024-03-02T13:32:53;3.30;;;2.20;;
40591;SDS011;26301;42.832;23.918;2024-03-02T13:35:19;3.00;;;2.38;;
40591;SDS011;26301;42.832;23.918;2024-03-02T13:37:44;4.35;;;2.88;;
40591;SDS011;26301;42.832;23.918;2024-03-02T13:40:09;3.45;;;2.20;;
40591;SDS011;26301;42.832;23.918;2024-03-02T13:42:39;3.40;;;2.10;;
40591;SDS011;26301;42.832;23.918;2024-03-02T13:45:05;3.80;;;2.28;;
40591;SDS011;26301;42.832;23.918;2024-03-02T13:47:31;3.47;;;1.85;;
40591;SDS011;26301;42.832;23.918;2024-03-02T13:49:57;2.95;;;1.88;;
40591;SDS011;26301;42.832;23.918;2024-03-02T13:52:23;3.58;;;2.25;;
40591;SDS011;26301;42.832;23.918;2024-03-02T13:54:50;2.72;;;1.70;;
40591;SDS011;26301;42.832;23.918;2024-03-02T13:57:17;4.18;;;2.72;;
40591;SDS011;26301;42.832;23.918;2024-03-02T13:59:45;2.42;;;1.63;;
40591;SDS011;26301;42.832;23.918;2024-03-02T14:02:11;3.63;;;2.10;;
40591;SDS011;26301;42.832;23.918;2024-03-02T14:04:37;1.70;;;1.50;;
40591;SDS011;26301;42.832;23.918;2024-03-02T14:07:04;1.83;;;1.40;;
40591;SDS011;26301;42.832;23.918;2024-03-02T14:09:32;2.15;;;1.30;;
40591;SDS011;26301;42.832;23.918;2024-03-02T14:11:57;1.70;;;1.30;;
40591;SDS011;26301;42.832;23.918;2024-03-02T14:14:25;1.42;;;1.02;;
40591;SDS011;26301;42.832;23.918;2024-03-02T14:16:51;2.75;;;1.20;;
40591;SDS011;26301;42.832;23.918;2024-03-02T14:19:20;2.00;;;1.13;;
40591;SDS011;26301;42.832;23.918;2024-03-02T14:21:46;1.20;;;1.00;;
40591;SDS011;26301;42.832;23.918;2024-03-02T14:24:12;1.50;;;1.20;;
40591;SDS011;26301;42.832;23.918;2024-03-02T14:26:38;1.73;;;1.25;;
40591;SDS011;26301;42.832;23.918;2024-03-02T14:29:04;1.38;;;1.10;;
40591;SDS011;26301;42.832;23.918;2024-03-02T14:31:30;1.73;;;1.23;;
40591;SDS011;26301;42.832;23.918;2024-03-02T14:33:59;1.50;;;1.20;;